sensor_id;sensor_type;location;lat;lon;timestamp;temperature;humidity
44121;DHT22;29783;52.504;13.478;2022-11-09T00:02:57;11.50;76.70
44121;DHT22;29783;52.504;13.478;2022-11-09T00:05:29;11.40;77.10
44121;DHT22;29783;52.504;13.478;2022-11-09T00:08:12;11.40;77.10
44121;DHT22;29783;52.504;13.478;2022-11-09T00:10:52;11.40;77.30
44121;DHT22;29783;52.504;13.478;2022-11-09T00:13:18;11.40;77.20
44121;DHT22;29783;52.504;13.478;2022-11-09T00:16:11;11.40;77.20
44121;DHT22;29783;52.504;13.478;2022-11-09T00:22:16;11.40;77.10
44121;DHT22;29783;52.504;13.478;2022-11-09T00:31:38;11.30;77.50
44121;DHT22;29783;52.504;13.478;2022-11-09T00:35:00;11.30;77.50
44121;DHT22;29783;52.504;13.478;2022-11-09T00:37:29;11.30;77.70
44121;DHT22;29783;52.504;13.478;2022-11-09T00:39:58;11.30;77.60
44121;DHT22;29783;52.504;13.478;2022-11-09T00:42:30;11.30;77.60
44121;DHT22;29783;52.504;13.478;2022-11-09T00:45:27;11.30;77.80
44121;DHT22;29783;52.504;13.478;2022-11-09T00:48:14;11.30;77.60
44121;DHT22;29783;52.504;13.478;2022-11-09T00:57:48;11.40;77.20
44121;DHT22;29783;52.504;13.478;2022-11-09T01:00:22;11.40;77.20
44121;DHT22;29783;52.504;13.478;2022-11-09T01:06:25;11.30;77.60
44121;DHT22;29783;52.504;13.478;2022-11-09T01:09:08;11.20;77.90
44121;DHT22;29783;52.504;13.478;2022-11-09T01:11:37;11.30;77.50
44121;DHT22;29783;52.504;13.478;2022-11-09T01:14:10;11.30;77.30
44121;DHT22;29783;52.504;13.478;2022-11-09T01:16:36;11.30;77.30
44121;DHT22;29783;52.504;13.478;2022-11-09T01:19:02;11.40;77.00
44121;DHT22;29783;52.504;13.478;2022-11-09T01:32:10;11.20;77.30
44121;DHT22;29783;52.504;13.478;2022-11-09T01:38:18;11.00;77.70
44121;DHT22;29783;52.504;13.478;2022-11-09T01:40:44;10.90;78.30
44121;DHT22;29783;52.504;13.478;2022-11-09T01:43:20;10.80;78.50
44121;DHT22;29783;52.504;13.478;2022-11-09T01:49:03;10.70;79.30
44121;DHT22;29783;52.504;13.478;2022-11-09T02:05:46;10.60;79.60
44121;DHT22;29783;52.504;13.478;2022-11-09T02:12:02;10.60;79.40
44121;DHT22;29783;52.504;13.478;2022-11-09T02:14:33;10.30;80.20
44121;DHT22;29783;52.504;13.478;2022-11-09T02:27:31;9.90;81.50
44121;DHT22;29783;52.504;13.478;2022-11-09T02:30:04;9.80;81.80
44121;DHT22;29783;52.504;13.478;2022-11-09T02:32:35;9.80;82.00
44121;DHT22;29783;52.504;13.478;2022-11-09T02:38:42;9.70;82.70
44121;DHT22;29783;52.504;13.478;2022-11-09T02:45:01;9.50;83.20
44121;DHT22;29783;52.504;13.478;2022-11-09T02:47:38;9.50;83.30
44121;DHT22;29783;52.504;13.478;2022-11-09T02:50:22;9.50;83.40
44121;DHT22;29783;52.504;13.478;2022-11-09T02:52:57;9.60;83.10
44121;DHT22;29783;52.504;13.478;2022-11-09T02:55:34;9.70;83.10
44121;DHT22;29783;52.504;13.478;2022-11-09T02:58:03;9.80;82.40
44121;DHT22;29783;52.504;13.478;2022-11-09T03:00:38;9.80;82.20
44121;DHT22;29783;52.504;13.478;2022-11-09T03:03:07;9.80;82.20
44121;DHT22;29783;52.504;13.478;2022-11-09T03:05:44;9.70;82.40
44121;DHT22;29783;52.504;13.478;2022-11-09T03:08:15;9.60;82.70
44121;DHT22;29783;52.504;13.478;2022-11-09T03:10:58;9.50;83.00
44121;DHT22;29783;52.504;13.478;2022-11-09T03:13:29;9.60;83.20
44121;DHT22;29783;52.504;13.478;2022-11-09T03:25:50;10.10;81.60
44121;DHT22;29783;52.504;13.478;2022-11-09T03:28:15;10.10;81.30
44121;DHT22;29783;52.504;13.478;2022-11-09T03:30:41;10.20;81.20
44121;DHT22;29783;52.504;13.478;2022-11-09T03:33:07;10.20;81.20
44121;DHT22;29783;52.504;13.478;2022-11-09T03:35:35;10.20;81.10
44121;DHT22;29783;52.504;13.478;2022-11-09T03:38:04;10.20;81.10
44121;DHT22;29783;52.504;13.478;2022-11-09T03:40:36;10.30;80.90
44121;DHT22;29783;52.504;13.478;2022-11-09T03:46:33;10.50;80.30
44121;DHT22;29783;52.504;13.478;2022-11-09T03:49:16;10.60;79.70
44121;DHT22;29783;52.504;13.478;2022-11-09T03:52:03;10.70;79.00
44121;DHT22;29783;52.504;13.478;2022-11-09T03:54:34;11.00;78.10
44121;DHT22;29783;52.504;13.478;2022-11-09T03:57:05;11.00;77.90
44121;DHT22;29783;52.504;13.478;2022-11-09T03:59:32;11.10;77.70
44121;DHT22;29783;52.504;13.478;2022-11-09T04:02:10;11.10;77.50
44121;DHT22;29783;52.504;13.478;2022-11-09T04:04:59;11.10;77.50
44121;DHT22;29783;52.504;13.478;2022-11-09T04:07:55;11.10;77.30
44121;DHT22;29783;52.504;13.478;2022-11-09T04:11:00;11.20;77.20
44121;DHT22;29783;52.504;13.478;2022-11-09T04:13:47;11.20;77.10
44121;DHT22;29783;52.504;13.478;2022-11-09T04:23:18;11.20;77.30
44121;DHT22;29783;52.504;13.478;2022-11-09T04:33:02;11.30;77.80
44121;DHT22;29783;52.504;13.478;2022-11-09T04:39:38;11.20;78.40
44121;DHT22;29783;52.504;13.478;2022-11-09T04:55:46;11.30;80.40
44121;DHT22;29783;52.504;13.478;2022-11-09T04:58:20;11.30;80.90
44121;DHT22;29783;52.504;13.478;2022-11-09T05:03:47;11.20;81.60
44121;DHT22;29783;52.504;13.478;2022-11-09T05:06:17;11.20;82.10
44121;DHT22;29783;52.504;13.478;2022-11-09T05:09:14;11.20;82.80
44121;DHT22;29783;52.504;13.478;2022-11-09T05:11:50;11.20;83.70
44121;DHT22;29783;52.504;13.478;2022-11-09T05:14:25;11.10;84.10
44121;DHT22;29783;52.504;13.478;2022-11-09T07:09:04;11.80;82.90
44121;DHT22;29783;52.504;13.478;2022-11-09T08:42:50;11.90;87.00
44121;DHT22;29783;52.504;13.478;2022-11-09T08:45:38;11.90;87.20
44121;DHT22;29783;52.504;13.478;2022-11-09T08:48:16;12.00;87.00
44121;DHT22;29783;52.504;13.478;2022-11-09T08:51:01;12.00;86.90
44121;DHT22;29783;52.504;13.478;2022-11-09T08:53:31;12.00;86.90
44121;DHT22;29783;52.504;13.478;2022-11-09T08:55:57;12.00;86.60
44121;DHT22;29783;52.504;13.478;2022-11-09T08:58:23;12.00;86.40
44121;DHT22;29783;52.504;13.478;2022-11-09T09:00:49;12.00;86.80
44121;DHT22;29783;52.504;13.478;2022-11-09T09:03:17;12.00;86.80
44121;DHT22;29783;52.504;13.478;2022-11-09T09:05:43;12.00;86.70
44121;DHT22;29783;52.504;13.478;2022-11-09T09:08:12;12.10;86.80
44121;DHT22;29783;52.504;13.478;2022-11-09T09:10:42;12.10;86.70
44121;DHT22;29783;52.504;13.478;2022-11-09T09:13:08;12.20;86.80
44121;DHT22;29783;52.504;13.478;2022-11-09T09:15:34;12.20;86.60
44121;DHT22;29783;52.504;13.478;2022-11-09T09:18:01;12.30;86.50
44121;DHT22;29783;52.504;13.478;2022-11-09T09:20:36;12.40;86.30
44121;DHT22;29783;52.504;13.478;2022-11-09T09:23:05;12.50;86.20
44121;DHT22;29783;52.504;13.478;2022-11-09T09:25:33;12.50;85.80
44121;DHT22;29783;52.504;13.478;2022-11-09T09:27:59;12.50;86.10
44121;DHT22;29783;52.504;13.478;2022-11-09T09:30:25;12.50;85.80
44121;DHT22;29783;52.504;13.478;2022-11-09T09:32:51;12.70;85.70
44121;DHT22;29783;52.504;13.478;2022-11-09T09:35:17;12.70;85.20
44121;DHT22;29783;52.504;13.478;2022-11-09T09:37:45;12.70;84.80
44121;DHT22;29783;52.504;13.478;2022-11-09T09:40:32;12.80;84.40
44121;DHT22;29783;52.504;13.478;2022-11-09T09:43:02;12.80;84.50
44121;DHT22;29783;52.504;13.478;2022-11-09T09:45:52;12.80;84.00
44121;DHT22;29783;52.504;13.478;2022-11-09T09:48:42;12.80;84.20
44121;DHT22;29783;52.504;13.478;2022-11-09T09:51:40;12.80;84.20
44121;DHT22;29783;52.504;13.478;2022-11-09T09:54:15;12.70;84.50
44121;DHT22;29783;52.504;13.478;2022-11-09T09:56:43;12.70;84.70
44121;DHT22;29783;52.504;13.478;2022-11-09T09:59:18;12.70;84.70
44121;DHT22;29783;52.504;13.478;2022-11-09T10:01:45;12.70;84.70
44121;DHT22;29783;52.504;13.478;2022-11-09T10:04:18;12.70;85.00
44121;DHT22;29783;52.504;13.478;2022-11-09T10:07:01;12.50;85.60
44121;DHT22;29783;52.504;13.478;2022-11-09T10:20:02;12.70;85.20
44121;DHT22;29783;52.504;13.478;2022-11-09T10:29:35;13.00;84.70
44121;DHT22;29783;52.504;13.478;2022-11-09T10:32:16;13.10;84.50
44121;DHT22;29783;52.504;13.478;2022-11-09T10:35:18;13.20;84.20
44121;DHT22;29783;52.504;13.478;2022-11-09T10:37:46;13.20;83.90
44121;DHT22;29783;52.504;13.478;2022-11-09T10:40:43;13.20;83.70
44121;DHT22;29783;52.504;13.478;2022-11-09T10:43:13;13.20;84.10
44121;DHT22;29783;52.504;13.478;2022-11-09T10:45:43;13.20;83.90
44121;DHT22;29783;52.504;13.478;2022-11-09T10:48:13;13.20;83.80
44121;DHT22;29783;52.504;13.478;2022-11-09T10:50:51;13.20;84.20
44121;DHT22;29783;52.504;13.478;2022-11-09T10:53:27;13.30;84.00
44121;DHT22;29783;52.504;13.478;2022-11-09T10:56:10;13.50;83.40
44121;DHT22;29783;52.504;13.478;2022-11-09T10:58:51;13.40;83.00
44121;DHT22;29783;52.504;13.478;2022-11-09T11:01:27;13.40;83.50
44121;DHT22;29783;52.504;13.478;2022-11-09T11:04:32;13.50;83.10
44121;DHT22;29783;52.504;13.478;2022-11-09T11:07:12;13.70;82.70
44121;DHT22;29783;52.504;13.478;2022-11-09T11:09:41;13.80;82.10
44121;DHT22;29783;52.504;13.478;2022-11-09T11:12:18;13.90;81.60
44121;DHT22;29783;52.504;13.478;2022-11-09T11:14:52;13.80;81.60
44121;DHT22;29783;52.504;13.478;2022-11-09T11:17:35;13.90;81.50
44121;DHT22;29783;52.504;13.478;2022-11-09T11:23:21;14.20;80.90
44121;DHT22;29783;52.504;13.478;2022-11-09T11:28:51;14.50;79.60
44121;DHT22;29783;52.504;13.478;2022-11-09T11:31:19;14.60;79.20
44121;DHT22;29783;52.504;13.478;2022-11-09T11:33:46;15.00;78.50
44121;DHT22;29783;52.504;13.478;2022-11-09T11:36:40;15.10;77.20
44121;DHT22;29783;52.504;13.478;2022-11-09T11:45:13;15.50;75.30
44121;DHT22;29783;52.504;13.478;2022-11-09T11:48:03;15.40;75.60
44121;DHT22;29783;52.504;13.478;2022-11-09T11:53:44;15.20;76.60
44121;DHT22;29783;52.504;13.478;2022-11-09T11:56:22;15.00;77.30
44121;DHT22;29783;52.504;13.478;2022-11-09T12:04:43;15.20;77.00
44121;DHT22;29783;52.504;13.478;2022-11-09T12:07:25;15.20;76.60
44121;DHT22;29783;52.504;13.478;2022-11-09T12:10:02;15.20;77.10
44121;DHT22;29783;52.504;13.478;2022-11-09T12:16:03;15.20;76.70
44121;DHT22;29783;52.504;13.478;2022-11-09T12:22:00;15.20;76.90
44121;DHT22;29783;52.504;13.478;2022-11-09T12:30:15;15.50;75.90
44121;DHT22;29783;52.504;13.478;2022-11-09T12:35:39;15.80;75.40
44121;DHT22;29783;52.504;13.478;2022-11-09T12:38:16;17.20;71.00
44121;DHT22;29783;52.504;13.478;2022-11-09T12:41:02;18.20;67.10
44121;DHT22;29783;52.504;13.478;2022-11-09T12:46:19;19.20;63.40
44121;DHT22;29783;52.504;13.478;2022-11-09T12:48:52;19.40;61.90
44121;DHT22;29783;52.504;13.478;2022-11-09T12:51:24;19.00;63.00
44121;DHT22;29783;52.504;13.478;2022-11-09T12:53:51;18.60;64.70
44121;DHT22;29783;52.504;13.478;2022-11-09T12:56:35;19.20;63.20
44121;DHT22;29783;52.504;13.478;2022-11-09T13:01:58;21.50;56.30
44121;DHT22;29783;52.504;13.478;2022-11-09T13:04:27;21.50;55.40
44121;DHT22;29783;52.504;13.478;2022-11-09T13:09:29;20.90;57.40
44121;DHT22;29783;52.504;13.478;2022-11-09T13:11:55;20.70;57.70
44121;DHT22;29783;52.504;13.478;2022-11-09T13:19:55;19.20;61.40
44121;DHT22;29783;52.504;13.478;2022-11-09T13:25:12;19.30;61.70
44121;DHT22;29783;52.504;13.478;2022-11-09T13:27:53;19.20;62.00
44121;DHT22;29783;52.504;13.478;2022-11-09T13:30:41;19.30;61.70
44121;DHT22;29783;52.504;13.478;2022-11-09T13:38:37;19.30;61.30
44121;DHT22;29783;52.504;13.478;2022-11-09T13:46:51;17.50;66.80
44121;DHT22;29783;52.504;13.478;2022-11-09T13:49:53;17.30;67.70
44121;DHT22;29783;52.504;13.478;2022-11-09T13:55:36;16.80;69.70
44121;DHT22;29783;52.504;13.478;2022-11-09T13:58:29;16.50;70.80
44121;DHT22;29783;52.504;13.478;2022-11-09T14:01:00;16.30;71.50
44121;DHT22;29783;52.504;13.478;2022-11-09T14:03:28;16.20;72.30
44121;DHT22;29783;52.504;13.478;2022-11-09T14:06:02;15.90;73.10
44121;DHT22;29783;52.504;13.478;2022-11-09T14:08:34;15.90;73.30
44121;DHT22;29783;52.504;13.478;2022-11-09T14:22:00;15.90;73.60
44121;DHT22;29783;52.504;13.478;2022-11-09T14:24:32;15.90;73.60
44121;DHT22;29783;52.504;13.478;2022-11-09T14:27:12;15.80;73.70
44121;DHT22;29783;52.504;13.478;2022-11-09T14:29:51;15.70;74.60
44121;DHT22;29783;52.504;13.478;2022-11-09T14:32:35;15.40;75.30
44121;DHT22;29783;52.504;13.478;2022-11-09T14:37:57;15.30;75.90
44121;DHT22;29783;52.504;13.478;2022-11-09T14:40:29;15.30;76.30
44121;DHT22;29783;52.504;13.478;2022-11-09T14:45:58;14.90;77.80
44121;DHT22;29783;52.504;13.478;2022-11-09T14:48:30;14.80;78.70
44121;DHT22;29783;52.504;13.478;2022-11-09T14:51:20;14.70;79.30
44121;DHT22;29783;52.504;13.478;2022-11-09T14:53:51;14.50;79.90
44121;DHT22;29783;52.504;13.478;2022-11-09T14:56:27;14.40;80.50
44121;DHT22;29783;52.504;13.478;2022-11-09T14:58:55;14.30;80.90
44121;DHT22;29783;52.504;13.478;2022-11-09T15:01:26;14.20;81.40
44121;DHT22;29783;52.504;13.478;2022-11-09T15:06:42;14.00;82.40
44121;DHT22;29783;52.504;13.478;2022-11-09T15:09:21;13.80;82.80
44121;DHT22;29783;52.504;13.478;2022-11-09T15:11:48;13.70;83.10
44121;DHT22;29783;52.504;13.478;2022-11-09T15:14:28;13.70;83.50
44121;DHT22;29783;52.504;13.478;2022-11-09T15:19:33;13.50;84.20
44121;DHT22;29783;52.504;13.478;2022-11-09T15:28:19;13.20;85.30
44121;DHT22;29783;52.504;13.478;2022-11-09T15:33:52;13.10;85.80
44121;DHT22;29783;52.504;13.478;2022-11-09T15:36:35;13.00;86.10
44121;DHT22;29783;52.504;13.478;2022-11-09T15:39:15;13.00;86.50
44121;DHT22;29783;52.504;13.478;2022-11-09T15:41:41;13.00;86.50
44121;DHT22;29783;52.504;13.478;2022-11-09T15:44:09;12.90;86.80
44121;DHT22;29783;52.504;13.478;2022-11-09T15:46:44;12.80;87.00
44121;DHT22;29783;52.504;13.478;2022-11-09T15:49:15;12.70;87.40
44121;DHT22;29783;52.504;13.478;2022-11-09T15:51:41;12.70;87.60
44121;DHT22;29783;52.504;13.478;2022-11-09T15:54:11;12.50;87.70
44121;DHT22;29783;52.504;13.478;2022-11-09T15:56:37;12.30;88.40
44121;DHT22;29783;52.504;13.478;2022-11-09T15:59:03;12.40;88.60
44121;DHT22;29783;52.504;13.478;2022-11-09T16:01:29;12.20;88.80
44121;DHT22;29783;52.504;13.478;2022-11-09T16:04:03;12.00;89.30
44121;DHT22;29783;52.504;13.478;2022-11-09T16:06:29;11.90;89.80
44121;DHT22;29783;52.504;13.478;2022-11-09T16:08:56;11.80;90.30
44121;DHT22;29783;52.504;13.478;2022-11-09T16:11:22;11.90;90.80
44121;DHT22;29783;52.504;13.478;2022-11-09T16:13:48;11.90;90.40
44121;DHT22;29783;52.504;13.478;2022-11-09T16:16:14;11.80;90.60
44121;DHT22;29783;52.504;13.478;2022-11-09T16:18:40;11.90;90.80
44121;DHT22;29783;52.504;13.478;2022-11-09T16:21:09;12.00;90.80
44121;DHT22;29783;52.504;13.478;2022-11-09T16:23:36;11.90;90.70
44121;DHT22;29783;52.504;13.478;2022-11-09T16:26:11;11.80;90.70
44121;DHT22;29783;52.504;13.478;2022-11-09T16:28:37;11.70;91.00
44121;DHT22;29783;52.504;13.478;2022-11-09T16:31:11;11.70;91.50
44121;DHT22;29783;52.504;13.478;2022-11-09T16:33:42;11.70;91.60
44121;DHT22;29783;52.504;13.478;2022-11-09T16:36:12;11.70;91.50
44121;DHT22;29783;52.504;13.478;2022-11-09T16:38:42;11.80;91.60
44121;DHT22;29783;52.504;13.478;2022-11-09T16:41:10;11.70;91.20
44121;DHT22;29783;52.504;13.478;2022-11-09T16:43:41;11.50;91.40
44121;DHT22;29783;52.504;13.478;2022-11-09T16:46:16;11.40;91.80
44121;DHT22;29783;52.504;13.478;2022-11-09T16:48:49;11.40;92.40
44121;DHT22;29783;52.504;13.478;2022-11-09T16:51:24;11.60;92.50
44121;DHT22;29783;52.504;13.478;2022-11-09T16:53:50;11.60;92.20
44121;DHT22;29783;52.504;13.478;2022-11-09T16:56:24;11.60;91.90
44121;DHT22;29783;52.504;13.478;2022-11-09T16:59:11;11.60;92.10
44121;DHT22;29783;52.504;13.478;2022-11-09T17:01:40;11.70;91.90
44121;DHT22;29783;52.504;13.478;2022-11-09T17:04:08;11.50;91.80
44121;DHT22;29783;52.504;13.478;2022-11-09T17:06:37;11.40;92.00
44121;DHT22;29783;52.504;13.478;2022-11-09T17:09:09;11.30;92.20
44121;DHT22;29783;52.504;13.478;2022-11-09T17:11:36;11.20;92.40
44121;DHT22;29783;52.504;13.478;2022-11-09T17:14:02;11.10;92.70
44121;DHT22;29783;52.504;13.478;2022-11-09T17:16:31;11.00;93.00
44121;DHT22;29783;52.504;13.478;2022-11-09T17:19:03;11.00;93.40
44121;DHT22;29783;52.504;13.478;2022-11-09T17:21:30;11.10;93.70
44121;DHT22;29783;52.504;13.478;2022-11-09T17:24:02;11.20;93.70
44121;DHT22;29783;52.504;13.478;2022-11-09T17:26:42;11.20;93.60
44121;DHT22;29783;52.504;13.478;2022-11-09T17:29:11;11.30;93.80
44121;DHT22;29783;52.504;13.478;2022-11-09T17:31:39;11.20;93.60
44121;DHT22;29783;52.504;13.478;2022-11-09T17:34:12;11.30;93.50
44121;DHT22;29783;52.504;13.478;2022-11-09T17:36:40;11.20;93.30
44121;DHT22;29783;52.504;13.478;2022-11-09T17:39:12;11.20;93.50
44121;DHT22;29783;52.504;13.478;2022-11-09T17:41:44;11.20;93.70
44121;DHT22;29783;52.504;13.478;2022-11-09T17:44:22;11.20;93.60
44121;DHT22;29783;52.504;13.478;2022-11-09T17:46:48;11.20;93.50
44121;DHT22;29783;52.504;13.478;2022-11-09T17:49:14;11.20;93.60
44121;DHT22;29783;52.504;13.478;2022-11-09T17:51:44;11.20;93.60
44121;DHT22;29783;52.504;13.478;2022-11-09T17:54:16;11.20;93.70
44121;DHT22;29783;52.504;13.478;2022-11-09T17:56:42;11.30;93.70
44121;DHT22;29783;52.504;13.478;2022-11-09T17:59:43;11.30;93.60
44121;DHT22;29783;52.504;13.478;2022-11-09T18:15:31;11.20;93.50
44121;DHT22;29783;52.504;13.478;2022-11-09T18:18:30;11.20;93.70
44121;DHT22;29783;52.504;13.478;2022-11-09T18:21:24;11.30;93.80
44121;DHT22;29783;52.504;13.478;2022-11-09T18:27:44;11.50;93.60
44121;DHT22;29783;52.504;13.478;2022-11-09T18:30:20;11.70;93.10
44121;DHT22;29783;52.504;13.478;2022-11-09T18:36:07;11.90;92.00
44121;DHT22;29783;52.504;13.478;2022-11-09T18:38:41;12.10;91.50
44121;DHT22;29783;52.504;13.478;2022-11-09T18:47:31;12.30;90.40
44121;DHT22;29783;52.504;13.478;2022-11-09T18:50:21;12.40;90.10
44121;DHT22;29783;52.504;13.478;2022-11-09T18:53:02;12.40;89.30
44121;DHT22;29783;52.504;13.478;2022-11-09T18:56:01;12.50;88.90
44121;DHT22;29783;52.504;13.478;2022-11-09T18:58:36;12.60;87.70
44121;DHT22;29783;52.504;13.478;2022-11-09T19:01:28;12.70;87.20
44121;DHT22;29783;52.504;13.478;2022-11-09T19:03:58;12.70;86.20
44121;DHT22;29783;52.504;13.478;2022-11-09T19:10:06;12.80;85.70
44121;DHT22;29783;52.504;13.478;2022-11-09T19:12:36;12.80;85.70
44121;DHT22;29783;52.504;13.478;2022-11-09T19:15:04;12.70;86.20
44121;DHT22;29783;52.504;13.478;2022-11-09T19:17:32;12.70;86.60
44121;DHT22;29783;52.504;13.478;2022-11-09T19:20:10;12.50;87.10
44121;DHT22;29783;52.504;13.478;2022-11-09T19:22:37;12.40;87.90
44121;DHT22;29783;52.504;13.478;2022-11-09T19:25:06;12.30;88.30
44121;DHT22;29783;52.504;13.478;2022-11-09T19:27:35;12.20;89.00
44121;DHT22;29783;52.504;13.478;2022-11-09T19:30:14;12.20;89.20
44121;DHT22;29783;52.504;13.478;2022-11-09T19:39:21;12.00;89.40
44121;DHT22;29783;52.504;13.478;2022-11-09T19:41:59;12.00;89.30
44121;DHT22;29783;52.504;13.478;2022-11-09T19:44:39;12.10;89.00
44121;DHT22;29783;52.504;13.478;2022-11-09T19:47:31;12.10;88.80
44121;DHT22;29783;52.504;13.478;2022-11-09T19:50:10;12.00;88.70
44121;DHT22;29783;52.504;13.478;2022-11-09T19:52:48;12.00;88.60
44121;DHT22;29783;52.504;13.478;2022-11-09T19:58:41;11.80;89.20
44121;DHT22;29783;52.504;13.478;2022-11-09T20:01:10;11.80;89.60
44121;DHT22;29783;52.504;13.478;2022-11-09T20:07:39;11.70;90.50
44121;DHT22;29783;52.504;13.478;2022-11-09T20:24:02;11.40;91.90
44121;DHT22;29783;52.504;13.478;2022-11-09T20:30:03;11.30;92.50
44121;DHT22;29783;52.504;13.478;2022-11-09T20:32:30;11.30;92.90
44121;DHT22;29783;52.504;13.478;2022-11-09T20:34:57;11.20;92.70
44121;DHT22;29783;52.504;13.478;2022-11-09T20:37:26;11.20;92.80
44121;DHT22;29783;52.504;13.478;2022-11-09T20:39:58;11.10;92.90
44121;DHT22;29783;52.504;13.478;2022-11-09T20:42:30;11.00;92.90
44121;DHT22;29783;52.504;13.478;2022-11-09T20:44:56;11.00;93.40
44121;DHT22;29783;52.504;13.478;2022-11-09T20:47:30;11.00;93.60
44121;DHT22;29783;52.504;13.478;2022-11-09T20:50:04;11.00;93.50
44121;DHT22;29783;52.504;13.478;2022-11-09T20:59:16;10.90;93.90
44121;DHT22;29783;52.504;13.478;2022-11-09T21:01:45;10.80;93.80
44121;DHT22;29783;52.504;13.478;2022-11-09T21:04:11;10.80;93.90
44121;DHT22;29783;52.504;13.478;2022-11-09T21:06:37;10.80;94.00
44121;DHT22;29783;52.504;13.478;2022-11-09T21:09:07;10.80;94.00
44121;DHT22;29783;52.504;13.478;2022-11-09T21:11:33;10.80;94.10
44121;DHT22;29783;52.504;13.478;2022-11-09T21:14:00;10.80;94.00
44121;DHT22;29783;52.504;13.478;2022-11-09T21:16:28;10.90;94.00
44121;DHT22;29783;52.504;13.478;2022-11-09T21:18:55;10.90;93.80
44121;DHT22;29783;52.504;13.478;2022-11-09T21:21:24;11.00;93.80
44121;DHT22;29783;52.504;13.478;2022-11-09T21:23:50;11.00;93.70
44121;DHT22;29783;52.504;13.478;2022-11-09T21:26:38;10.90;93.60
44121;DHT22;29783;52.504;13.478;2022-11-09T21:29:23;10.90;93.50
44121;DHT22;29783;52.504;13.478;2022-11-09T21:32:08;11.00;93.60
44121;DHT22;29783;52.504;13.478;2022-11-09T21:34:35;11.00;93.60
44121;DHT22;29783;52.504;13.478;2022-11-09T21:37:02;10.90;93.30
44121;DHT22;29783;52.504;13.478;2022-11-09T21:39:28;10.90;93.30
44121;DHT22;29783;52.504;13.478;2022-11-09T21:41:54;11.00;93.20
44121;DHT22;29783;52.504;13.478;2022-11-09T21:44:20;11.10;93.00
44121;DHT22;29783;52.504;13.478;2022-11-09T21:46:47;11.10;92.80
44121;DHT22;29783;52.504;13.478;2022-11-09T21:49:15;11.20;92.50
44121;DHT22;29783;52.504;13.478;2022-11-09T21:51:41;11.20;92.30
44121;DHT22;29783;52.504;13.478;2022-11-09T21:54:08;11.20;92.10
44121;DHT22;29783;52.504;13.478;2022-11-09T21:56:35;11.20;92.00
44121;DHT22;29783;52.504;13.478;2022-11-09T21:59:01;11.20;91.90
44121;DHT22;29783;52.504;13.478;2022-11-09T22:01:30;11.30;91.60
44121;DHT22;29783;52.504;13.478;2022-11-09T22:04:01;11.30;91.30
44121;DHT22;29783;52.504;13.478;2022-11-09T22:06:30;11.30;91.10
44121;DHT22;29783;52.504;13.478;2022-11-09T22:08:56;11.30;91.00
44121;DHT22;29783;52.504;13.478;2022-11-09T22:11:26;11.40;90.90
44121;DHT22;29783;52.504;13.478;2022-11-09T22:14:18;11.50;90.70
44121;DHT22;29783;52.504;13.478;2022-11-09T22:17:08;11.40;90.40
44121;DHT22;29783;52.504;13.478;2022-11-09T22:19:38;11.40;90.40
44121;DHT22;29783;52.504;13.478;2022-11-09T22:22:23;11.50;90.20
44121;DHT22;29783;52.504;13.478;2022-11-09T22:24:59;11.70;89.40
44121;DHT22;29783;52.504;13.478;2022-11-09T22:27:29;11.80;88.90
44121;DHT22;29783;52.504;13.478;2022-11-09T22:29:55;11.80;88.60
44121;DHT22;29783;52.504;13.478;2022-11-09T22:32:24;11.80;88.50
44121;DHT22;29783;52.504;13.478;2022-11-09T22:34:50;11.90;88.10
44121;DHT22;29783;52.504;13.478;2022-11-09T22:37:17;11.90;87.90
44121;DHT22;29783;52.504;13.478;2022-11-09T22:39:43;11.90;87.80
44121;DHT22;29783;52.504;13.478;2022-11-09T22:42:09;12.00;87.60
44121;DHT22;29783;52.504;13.478;2022-11-09T22:44:35;12.00;87.60
44121;DHT22;29783;52.504;13.478;2022-11-09T22:47:02;11.90;87.80
44121;DHT22;29783;52.504;13.478;2022-11-09T22:49:54;12.00;87.10
44121;DHT22;29783;52.504;13.478;2022-11-09T22:52:57;12.00;87.20
44121;DHT22;29783;52.504;13.478;2022-11-09T22:59:06;12.00;87.00
44121;DHT22;29783;52.504;13.478;2022-11-09T23:01:32;12.00;86.70
44121;DHT22;29783;52.504;13.478;2022-11-09T23:04:06;12.00;86.60
44121;DHT22;29783;52.504;13.478;2022-11-09T23:06:33;12.00;87.00
44121;DHT22;29783;52.504;13.478;2022-11-09T23:08:59;12.00;86.60
44121;DHT22;29783;52.504;13.478;2022-11-09T23:11:25;11.90;86.50
44121;DHT22;29783;52.504;13.478;2022-11-09T23:13:53;12.00;86.30
44121;DHT22;29783;52.504;13.478;2022-11-09T23:16:20;12.00;86.10
44121;DHT22;29783;52.504;13.478;2022-11-09T23:18:47;11.90;86.00
44121;DHT22;29783;52.504;13.478;2022-11-09T23:21:27;11.90;85.80
44121;DHT22;29783;52.504;13.478;2022-11-09T23:23:58;12.00;85.40
44121;DHT22;29783;52.504;13.478;2022-11-09T23:26:24;12.00;85.20
44121;DHT22;29783;52.504;13.478;2022-11-09T23:28:51;11.90;85.10
44121;DHT22;29783;52.504;13.478;2022-11-09T23:31:19;12.00;85.00
44121;DHT22;29783;52.504;13.478;2022-11-09T23:33:52;12.00;85.20
44121;DHT22;29783;52.504;13.478;2022-11-09T23:36:22;11.80;85.30
44121;DHT22;29783;52.504;13.478;2022-11-09T23:38:48;11.80;85.80
44121;DHT22;29783;52.504;13.478;2022-11-09T23:41:17;11.70;85.80
44121;DHT22;29783;52.504;13.478;2022-11-09T23:43:43;11.60;85.90
44121;DHT22;29783;52.504;13.478;2022-11-09T23:46:13;11.70;85.50
44121;DHT22;29783;52.504;13.478;2022-11-09T23:48:42;11.70;84.60
44121;DHT22;29783;52.504;13.478;2022-11-09T23:51:08;11.70;84.00
44121;DHT22;29783;52.504;13.478;2022-11-09T23:53:35;11.80;83.40
44121;DHT22;29783;52.504;13.478;2022-11-09T23:56:06;11.80;82.60
44121;DHT22;29783;52.504;13.478;2022-11-09T23:58:33;12.00;81.20
